createdAt,value
2022-12-27T00:02:32.496Z,66.29
2022-12-27T00:07:34.143Z,65.56
2022-12-27T00:12:36.171Z,66.64
2022-12-27T00:17:37.786Z,67.07
2022-12-27T00:22:40.174Z,67.62
2022-12-27T00:27:41.750Z,67.19
2022-12-27T00:32:43.420Z,65.38
2022-12-27T00:37:45.078Z,67.50
2022-12-27T00:42:46.758Z,66.97
2022-12-27T00:47:49.543Z,66.71
2022-12-27T00:52:51.901Z,66.68
2022-12-27T00:57:54.413Z,66.27
2022-12-27T01:02:56.492Z,66.33
2022-12-27T01:07:59.629Z,66.21
2022-12-27T01:13:03.098Z,66.16
2022-12-27T01:18:04.722Z,67.11
2022-12-27T01:23:06.497Z,66.91
2022-12-27T01:28:08.242Z,65.58
2022-12-27T01:33:10.054Z,66.63
2022-12-27T01:38:12.049Z,65.68
2022-12-27T01:43:18.965Z,64.90
2022-12-27T01:48:24.171Z,64.80
2022-12-27T01:53:31.066Z,64.85
2022-12-27T01:58:35.635Z,64.22
2022-12-27T02:03:42.462Z,64.54
2022-12-27T02:09:01.086Z,64.66
2022-12-27T02:14:02.847Z,64.27
2022-12-27T02:19:17.604Z,63.63
2022-12-27T02:24:34.336Z,63.92
2022-12-27T02:29:50.811Z,62.79
2022-12-27T02:35:10.113Z,62.81
2022-12-27T02:40:14.747Z,63.05
2022-12-27T02:45:21.348Z,62.32
2022-12-27T02:50:23.256Z,61.75
2022-12-27T02:55:58.946Z,62.01
2022-12-27T03:01:23.840Z,61.20
2022-12-27T03:06:34.405Z,61.20
2022-12-27T03:11:48.268Z,61.82
2022-12-27T03:16:59.791Z,62.04
2022-12-27T03:22:02.697Z,62.16
2022-12-27T03:27:11.022Z,62.56
2022-12-27T03:32:15.752Z,62.74
2022-12-27T03:37:30.217Z,62.77
2022-12-27T03:42:36.093Z,62.17
2022-12-27T03:48:02.282Z,62.16
2022-12-27T03:53:25.102Z,62.54
2022-12-27T03:58:26.792Z,62.95
2022-12-27T04:03:28.477Z,63.01
2022-12-27T04:08:30.064Z,63.78
2022-12-27T04:13:31.620Z,64.06
2022-12-27T04:18:33.245Z,64.58
2022-12-27T04:23:34.892Z,65.46
2022-12-27T04:28:36.893Z,63.35
2022-12-27T04:33:38.471Z,62.89
2022-12-27T04:38:40.065Z,63.96
2022-12-27T04:43:41.811Z,63.90
2022-12-27T04:48:43.506Z,65.20
2022-12-27T04:53:45.483Z,65.43
2022-12-27T04:58:46.980Z,66.04
2022-12-27T05:03:50.651Z,66.19
2022-12-27T05:08:52.335Z,65.90
2022-12-27T05:13:53.954Z,66.18
2022-12-27T05:18:55.741Z,65.81
2022-12-27T05:24:03.351Z,65.72
2022-12-27T05:29:08.118Z,66.04
2022-12-27T05:34:09.748Z,66.57
2022-12-27T05:39:11.324Z,66.13
2022-12-27T05:44:12.898Z,68.28
2022-12-27T05:49:14.696Z,68.73
2022-12-27T05:54:16.467Z,69.00
2022-12-27T05:59:17.990Z,68.79
2022-12-27T06:04:19.509Z,69.18
2022-12-27T06:09:21.203Z,69.52
2022-12-27T06:14:22.730Z,68.93
2022-12-27T06:19:24.244Z,69.30
2022-12-27T06:24:25.786Z,68.48
2022-12-27T06:29:27.258Z,67.73
2022-12-27T06:34:28.792Z,67.78
2022-12-27T06:39:30.643Z,66.78
2022-12-27T06:44:32.171Z,65.95
2022-12-27T06:49:33.737Z,65.19
2022-12-27T06:54:35.334Z,65.13
2022-12-27T06:59:36.925Z,65.18
2022-12-27T07:04:38.406Z,65.22
2022-12-27T07:09:40.015Z,65.75
2022-12-27T07:14:41.564Z,65.96
2022-12-27T07:19:43.085Z,66.38
2022-12-27T07:24:44.674Z,66.84
2022-12-27T07:29:46.295Z,66.39
2022-12-27T07:34:47.820Z,66.56
2022-12-27T07:39:49.413Z,66.16
2022-12-27T07:44:50.933Z,65.80
2022-12-27T07:49:52.403Z,66.40
2022-12-27T07:54:53.907Z,66.72
2022-12-27T07:59:55.391Z,66.38
2022-12-27T08:04:57.005Z,66.35
2022-12-27T08:09:58.492Z,64.94
2022-12-27T08:15:00.011Z,65.34
2022-12-27T08:20:01.572Z,64.20
2022-12-27T08:25:03.115Z,64.03
2022-12-27T08:30:05.524Z,64.64
2022-12-27T08:35:41.803Z,64.81
2022-12-27T08:40:28.917Z,64.05
2022-12-27T08:45:30.440Z,64.81
2022-12-27T08:50:31.967Z,64.17
2022-12-27T08:55:33.766Z,63.74
2022-12-27T09:00:35.271Z,64.56
2022-12-27T09:05:41.636Z,65.60
2022-12-27T09:10:43.693Z,64.78
2022-12-27T09:15:45.296Z,64.52
2022-12-27T09:20:46.792Z,63.31
2022-12-27T09:25:48.342Z,64.21
2022-12-27T09:30:50.107Z,64.22
2022-12-27T09:35:51.842Z,64.59
2022-12-27T09:40:55.812Z,63.77
2022-12-27T09:45:58.306Z,63.43
2022-12-27T09:51:06.142Z,63.30
2022-12-27T09:56:11.733Z,62.85
2022-12-27T10:01:27.416Z,62.63
2022-12-27T10:06:57.621Z,63.75
2022-12-27T10:12:14.371Z,63.46
2022-12-27T10:17:48.077Z,63.44
2022-12-27T10:23:06.473Z,62.82
2022-12-27T10:28:23.295Z,63.00
2022-12-27T10:33:31.138Z,60.54
2022-12-27T10:38:34.516Z,61.88
2022-12-27T10:43:40.947Z,62.27
2022-12-27T10:54:27.450Z,60.38
2022-12-27T10:59:29.293Z,60.17
2022-12-27T11:04:32.357Z,56.55
2022-12-27T11:09:38.632Z,55.78
2022-12-27T11:14:59.400Z,54.83
2022-12-27T11:20:18.784Z,56.44
2022-12-27T11:25:21.447Z,57.47
2022-12-27T11:30:31.109Z,57.56
2022-12-27T11:35:33.938Z,57.65
2022-12-27T11:40:35.576Z,56.87
2022-12-27T11:45:46.759Z,57.52
2022-12-27T11:51:03.884Z,53.68
2022-12-27T11:56:30.585Z,52.58
2022-12-27T12:02:08.127Z,52.05
2022-12-27T12:07:28.624Z,53.61
2022-12-27T12:12:42.312Z,54.90
2022-12-27T12:18:08.245Z,56.55
2022-12-27T12:23:35.936Z,55.92
2022-12-27T12:28:59.087Z,55.28
2022-12-27T12:34:19.527Z,55.36
2022-12-27T12:39:39.847Z,55.99
2022-12-27T12:44:56.614Z,57.31
2022-12-27T12:50:23.936Z,57.99
2022-12-27T12:55:25.626Z,57.10
2022-12-27T13:01:05.622Z,56.97
2022-12-27T13:06:44.795Z,57.58
2022-12-27T13:12:02.172Z,55.99
2022-12-27T13:17:19.825Z,56.55
2022-12-27T13:23:07.452Z,56.37
2022-12-27T13:29:03.388Z,55.15
2022-12-27T13:34:36.445Z,54.38
2022-12-27T13:40:29.156Z,55.94
2022-12-27T13:45:48.494Z,55.68
2022-12-27T13:51:13.069Z,56.36
2022-12-27T13:56:54.101Z,55.33
2022-12-27T14:02:20.583Z,56.86
2022-12-27T14:07:25.113Z,56.85
2022-12-27T14:12:44.967Z,56.23
2022-12-27T14:18:03.747Z,56.69
2022-12-27T14:23:26.081Z,56.84
2022-12-27T14:29:00.169Z,56.91
2022-12-27T14:34:28.128Z,56.94
2022-12-27T14:39:56.921Z,56.66
2022-12-27T14:45:17.253Z,56.81
2022-12-27T14:50:34.036Z,57.35
2022-12-27T14:55:41.842Z,57.46
2022-12-27T15:01:14.190Z,57.17
2022-12-27T15:06:51.751Z,58.52
2022-12-27T15:12:23.755Z,59.58
2022-12-27T15:17:36.909Z,58.32
2022-12-27T15:22:56.174Z,59.08
2022-12-27T15:28:00.332Z,59.41
2022-12-27T15:33:13.828Z,60.74
2022-12-27T15:38:18.628Z,61.39
2022-12-27T15:43:36.276Z,60.96
2022-12-27T15:49:05.347Z,61.70
2022-12-27T15:54:27.867Z,61.74
2022-12-27T16:00:07.930Z,62.35
2022-12-27T16:05:23.016Z,62.11
2022-12-27T16:10:30.744Z,61.54
2022-12-27T16:15:39.348Z,61.29
2022-12-27T16:20:40.952Z,61.70
2022-12-27T16:25:43.266Z,61.55
2022-12-27T16:30:48.620Z,61.32
2022-12-27T16:36:04.843Z,60.72
2022-12-27T16:41:24.915Z,61.11
2022-12-27T16:46:52.081Z,61.25
2022-12-27T16:52:06.919Z,60.96
2022-12-27T16:57:37.674Z,61.75
2022-12-27T17:02:46.020Z,62.18
2022-12-27T17:07:52.988Z,62.14
2022-12-27T17:13:00.037Z,62.33
2022-12-27T17:18:16.291Z,62.28
2022-12-27T17:23:18.069Z,61.65
2022-12-27T17:28:35.580Z,62.26
2022-12-27T17:34:09.488Z,61.20
2022-12-27T17:39:13.722Z,61.98
2022-12-27T17:44:27.301Z,61.71
2022-12-27T17:49:31.116Z,61.91
2022-12-27T17:54:32.665Z,61.53
2022-12-27T17:59:34.568Z,61.42
2022-12-27T18:04:39.323Z,62.17
2022-12-27T18:09:47.098Z,63.21
2022-12-27T18:15:00.813Z,63.48
2022-12-27T18:20:28.791Z,63.61
2022-12-27T18:25:40.224Z,63.36
2022-12-27T18:30:47.637Z,63.40
2022-12-27T18:35:51.117Z,62.36
2022-12-27T18:41:02.986Z,61.43
2022-12-27T18:46:05.124Z,60.26
2022-12-27T18:51:06.836Z,61.31
2022-12-27T18:56:14.142Z,63.24
2022-12-27T19:01:32.659Z,63.39
2022-12-27T19:06:34.268Z,64.06
2022-12-27T19:11:36.797Z,65.48
2022-12-27T19:16:38.370Z,64.80
2022-12-27T19:21:39.953Z,64.26
2022-12-27T19:26:41.504Z,64.41
2022-12-27T19:31:52.874Z,64.12
2022-12-27T19:36:55.627Z,64.18
2022-12-27T19:42:01.066Z,64.33
2022-12-27T19:47:03.540Z,64.88
2022-12-27T19:52:05.485Z,63.90
2022-12-27T19:57:10.398Z,64.31
2022-12-27T20:02:12.209Z,64.26
2022-12-27T20:07:21.611Z,64.54
2022-12-27T20:12:23.209Z,66.54
2022-12-27T20:17:24.703Z,66.34
2022-12-27T20:22:26.480Z,65.32
2022-12-27T20:27:28.058Z,65.65
2022-12-27T20:32:29.645Z,66.11
2022-12-27T20:37:31.312Z,66.89
2022-12-27T20:42:33.277Z,66.65
2022-12-27T20:47:35.055Z,67.09
2022-12-27T20:52:37.139Z,67.52
2022-12-27T20:57:39.386Z,67.48
2022-12-27T21:02:40.992Z,67.07
2022-12-27T21:07:42.642Z,66.01
2022-12-27T21:12:44.207Z,65.72
2022-12-27T21:17:45.682Z,64.53
2022-12-27T21:22:47.624Z,64.16
2022-12-27T21:27:49.172Z,63.40
2022-12-27T21:32:50.777Z,63.32
2022-12-27T21:37:52.502Z,64.26
2022-12-27T21:42:54.016Z,63.67
2022-12-27T21:47:55.549Z,63.48
2022-12-27T21:52:57.074Z,63.33
2022-12-27T21:57:58.667Z,64.10
2022-12-27T22:03:00.308Z,64.02
2022-12-27T22:08:01.927Z,63.98
2022-12-27T22:13:03.439Z,64.61
2022-12-27T22:18:04.983Z,63.57
2022-12-27T22:23:06.524Z,63.67
2022-12-27T22:28:08.003Z,62.74
2022-12-27T22:33:09.507Z,64.09
2022-12-27T22:38:11.224Z,63.58
2022-12-27T22:43:12.750Z,63.41
2022-12-27T22:48:14.279Z,62.94
2022-12-27T22:53:15.786Z,63.42
2022-12-27T22:58:17.415Z,63.03
2022-12-27T23:03:19.041Z,63.23
2022-12-27T23:08:20.718Z,62.52
2022-12-27T23:13:22.322Z,62.96
2022-12-27T23:18:24.392Z,62.93
2022-12-27T23:23:26.003Z,62.40
2022-12-27T23:28:27.493Z,62.15
2022-12-27T23:33:29.081Z,62.80
2022-12-27T23:38:30.891Z,62.98
2022-12-27T23:43:51.796Z,62.85
2022-12-27T23:48:56.369Z,62.78
2022-12-27T23:53:58.085Z,62.26
2022-12-27T23:59:01.947Z,61.73
